sensor_id;sensor_type;location;lat;lon;timestamp;P1;durP1;ratioP1;P2;durP2;ratioP2
2191;SDS011;1102;49.718;11.902;2022-11-18T00:00:55;15.73;;;11.10;;
2191;SDS011;1102;49.718;11.902;2022-11-18T00:03:22;14.13;;;11.70;;
2191;SDS011;1102;49.718;11.902;2022-11-18T00:05:55;16.40;;;11.97;;
2191;SDS011;1102;49.718;11.902;2022-11-18T00:08:23;14.57;;;10.17;;
2191;SDS011;1102;49.718;11.902;2022-11-18T00:10:51;11.33;;;9.00;;
2191;SDS011;1102;49.718;11.902;2022-11-18T00:13:19;11.73;;;8.60;;
2191;SDS011;1102;49.718;11.902;2022-11-18T00:16:06;10.33;;;8.43;;
2191;SDS011;1102;49.718;11.902;2022-11-18T00:18:36;12.87;;;8.90;;
2191;SDS011;1102;49.718;11.902;2022-11-18T00:21:05;11.57;;;9.60;;
2191;SDS011;1102;49.718;11.902;2022-11-18T00:23:34;11.47;;;8.70;;
2191;SDS011;1102;49.718;11.902;2022-11-18T00:26:05;8.77;;;7.80;;
2191;SDS011;1102;49.718;11.902;2022-11-18T00:28:36;11.97;;;7.50;;
2191;SDS011;1102;49.718;11.902;2022-11-18T00:31:13;8.87;;;7.40;;
2191;SDS011;1102;49.718;11.902;2022-11-18T00:33:40;9.00;;;7.50;;
2191;SDS011;1102;49.718;11.902;2022-11-18T00:36:07;9.33;;;8.43;;
2191;SDS011;1102;49.718;11.902;2022-11-18T00:38:35;11.37;;;7.47;;
2191;SDS011;1102;49.718;11.902;2022-11-18T00:41:10;10.93;;;7.73;;
2191;SDS011;1102;49.718;11.902;2022-11-18T00:43:38;9.43;;;8.30;;
2191;SDS011;1102;49.718;11.902;2022-11-18T00:46:06;7.73;;;6.90;;
2191;SDS011;1102;49.718;11.902;2022-11-18T00:48:35;9.33;;;8.17;;
2191;SDS011;1102;49.718;11.902;2022-11-18T00:51:16;7.30;;;6.57;;
2191;SDS011;1102;49.718;11.902;2022-11-18T00:53:44;9.10;;;7.37;;
2191;SDS011;1102;49.718;11.902;2022-11-18T00:56:10;8.07;;;6.57;;
2191;SDS011;1102;49.718;11.902;2022-11-18T00:58:37;7.57;;;6.77;;
2191;SDS011;1102;49.718;11.902;2022-11-18T01:01:04;7.70;;;6.70;;
2191;SDS011;1102;49.718;11.902;2022-11-18T01:03:31;7.40;;;6.30;;
2191;SDS011;1102;49.718;11.902;2022-11-18T01:05:57;7.73;;;7.00;;
2191;SDS011;1102;49.718;11.902;2022-11-18T01:08:24;8.33;;;5.77;;
2191;SDS011;1102;49.718;11.902;2022-11-18T01:10:51;9.77;;;8.03;;
2191;SDS011;1102;49.718;11.902;2022-11-18T01:13:19;8.83;;;7.67;;
2191;SDS011;1102;49.718;11.902;2022-11-18T01:15:49;11.60;;;7.90;;
2191;SDS011;1102;49.718;11.902;2022-11-18T01:18:23;11.03;;;8.67;;
2191;SDS011;1102;49.718;11.902;2022-11-18T01:20:51;11.00;;;7.50;;
2191;SDS011;1102;49.718;11.902;2022-11-18T01:23:18;10.70;;;8.47;;
2191;SDS011;1102;49.718;11.902;2022-11-18T01:25:46;9.63;;;7.10;;
2191;SDS011;1102;49.718;11.902;2022-11-18T01:28:15;9.50;;;7.90;;
2191;SDS011;1102;49.718;11.902;2022-11-18T01:30:48;10.90;;;7.70;;
2191;SDS011;1102;49.718;11.902;2022-11-18T01:33:15;8.00;;;7.10;;
2191;SDS011;1102;49.718;11.902;2022-11-18T01:35:42;10.93;;;7.57;;
2191;SDS011;1102;49.718;11.902;2022-11-18T01:38:10;8.70;;;7.07;;
2191;SDS011;1102;49.718;11.902;2022-11-18T01:40:38;10.90;;;8.27;;
2191;SDS011;1102;49.718;11.902;2022-11-18T01:43:09;10.37;;;7.67;;
2191;SDS011;1102;49.718;11.902;2022-11-18T01:45:39;11.70;;;9.30;;
2191;SDS011;1102;49.718;11.902;2022-11-18T01:50:57;10.97;;;9.00;;
2191;SDS011;1102;49.718;11.902;2022-11-18T01:53:29;10.73;;;8.47;;
2191;SDS011;1102;49.718;11.902;2022-11-18T01:55:59;10.43;;;7.80;;
2191;SDS011;1102;49.718;11.902;2022-11-18T01:58:37;12.90;;;7.97;;
2191;SDS011;1102;49.718;11.902;2022-11-18T02:01:07;12.33;;;8.50;;
2191;SDS011;1102;49.718;11.902;2022-11-18T02:03:34;13.10;;;8.67;;
2191;SDS011;1102;49.718;11.902;2022-11-18T02:06:02;9.83;;;7.67;;
2191;SDS011;1102;49.718;11.902;2022-11-18T02:08:30;10.13;;;9.00;;
2191;SDS011;1102;49.718;11.902;2022-11-18T02:10:58;11.37;;;8.43;;
2191;SDS011;1102;49.718;11.902;2022-11-18T02:13:25;9.43;;;8.37;;
2191;SDS011;1102;49.718;11.902;2022-11-18T02:27:20;10.70;;;8.83;;
2191;SDS011;1102;49.718;11.902;2022-11-18T02:29:53;9.00;;;7.47;;
2191;SDS011;1102;49.718;11.902;2022-11-18T02:32:37;9.10;;;8.00;;
2191;SDS011;1102;49.718;11.902;2022-11-18T02:35:19;8.47;;;7.57;;
2191;SDS011;1102;49.718;11.902;2022-11-18T02:38:08;9.67;;;7.13;;
2191;SDS011;1102;49.718;11.902;2022-11-18T02:40:40;8.40;;;7.10;;
2191;SDS011;1102;49.718;11.902;2022-11-18T02:43:12;7.80;;;6.60;;
2191;SDS011;1102;49.718;11.902;2022-11-18T02:45:45;9.67;;;7.50;;
2191;SDS011;1102;49.718;11.902;2022-11-18T02:48:16;8.20;;;7.37;;
2191;SDS011;1102;49.718;11.902;2022-11-18T02:50:46;10.90;;;8.00;;
2191;SDS011;1102;49.718;11.902;2022-11-18T02:53:17;9.73;;;7.30;;
2191;SDS011;1102;49.718;11.902;2022-11-18T02:55:45;9.10;;;7.20;;
2191;SDS011;1102;49.718;11.902;2022-11-18T02:58:14;9.70;;;7.47;;
2191;SDS011;1102;49.718;11.902;2022-11-18T03:00:43;10.40;;;7.33;;
2191;SDS011;1102;49.718;11.902;2022-11-18T03:03:43;9.90;;;8.90;;
2191;SDS011;1102;49.718;11.902;2022-11-18T03:08:31;7.77;;;6.43;;
2191;SDS011;1102;49.718;11.902;2022-11-18T03:19:33;8.03;;;6.80;;
2191;SDS011;1102;49.718;11.902;2022-11-18T03:24:55;9.40;;;8.40;;
2191;SDS011;1102;49.718;11.902;2022-11-18T03:27:34;9.90;;;8.80;;
2191;SDS011;1102;49.718;11.902;2022-11-18T03:30:05;10.17;;;8.77;;
2191;SDS011;1102;49.718;11.902;2022-11-18T03:32:37;12.10;;;9.00;;
2191;SDS011;1102;49.718;11.902;2022-11-18T03:35:08;10.90;;;9.00;;
2191;SDS011;1102;49.718;11.902;2022-11-18T03:37:39;9.30;;;8.30;;
2191;SDS011;1102;49.718;11.902;2022-11-18T03:40:16;11.10;;;7.63;;
2191;SDS011;1102;49.718;11.902;2022-11-18T03:42:51;9.83;;;8.30;;
2191;SDS011;1102;49.718;11.902;2022-11-18T03:45:27;11.20;;;8.20;;
2191;SDS011;1102;49.718;11.902;2022-11-18T03:48:06;14.23;;;11.00;;
2191;SDS011;1102;49.718;11.902;2022-11-18T03:50:41;10.00;;;8.50;;
2191;SDS011;1102;49.718;11.902;2022-11-18T03:53:13;11.03;;;9.43;;
2191;SDS011;1102;49.718;11.902;2022-11-18T03:55:44;13.30;;;10.40;;
2191;SDS011;1102;49.718;11.902;2022-11-18T04:00:49;13.77;;;9.70;;
2191;SDS011;1102;49.718;11.902;2022-11-18T04:03:23;10.17;;;8.60;;
2191;SDS011;1102;49.718;11.902;2022-11-18T04:05:52;10.20;;;8.43;;
2191;SDS011;1102;49.718;11.902;2022-11-18T04:08:32;10.53;;;8.03;;
2191;SDS011;1102;49.718;11.902;2022-11-18T04:11:05;13.80;;;10.43;;
2191;SDS011;1102;49.718;11.902;2022-11-18T04:13:59;12.20;;;10.07;;
2191;SDS011;1102;49.718;11.902;2022-11-18T04:16:26;10.17;;;8.70;;
2191;SDS011;1102;49.718;11.902;2022-11-18T04:18:53;12.83;;;9.33;;
2191;SDS011;1102;49.718;11.902;2022-11-18T04:21:19;10.80;;;9.57;;
2191;SDS011;1102;49.718;11.902;2022-11-18T04:23:46;17.40;;;10.90;;
2191;SDS011;1102;49.718;11.902;2022-11-18T04:26:13;16.20;;;11.33;;
2191;SDS011;1102;49.718;11.902;2022-11-18T04:28:39;13.87;;;10.53;;
2191;SDS011;1102;49.718;11.902;2022-11-18T04:31:06;16.13;;;11.23;;
2191;SDS011;1102;49.718;11.902;2022-11-18T04:33:33;19.00;;;11.33;;
2191;SDS011;1102;49.718;11.902;2022-11-18T04:35:59;12.07;;;10.37;;
2191;SDS011;1102;49.718;11.902;2022-11-18T04:38:26;11.60;;;9.87;;
2191;SDS011;1102;49.718;11.902;2022-11-18T04:40:52;12.00;;;9.50;;
2191;SDS011;1102;49.718;11.902;2022-11-18T04:43:19;14.90;;;10.80;;
2191;SDS011;1102;49.718;11.902;2022-11-18T04:45:46;15.23;;;9.93;;
2191;SDS011;1102;49.718;11.902;2022-11-18T04:48:12;11.43;;;10.27;;
2191;SDS011;1102;49.718;11.902;2022-11-18T04:50:39;11.80;;;10.40;;
2191;SDS011;1102;49.718;11.902;2022-11-18T04:53:06;17.37;;;11.17;;
2191;SDS011;1102;49.718;11.902;2022-11-18T04:55:36;14.17;;;11.10;;
2191;SDS011;1102;49.718;11.902;2022-11-18T04:58:03;17.50;;;12.50;;
2191;SDS011;1102;49.718;11.902;2022-11-18T05:00:29;16.83;;;12.80;;
2191;SDS011;1102;49.718;11.902;2022-11-18T05:02:56;19.00;;;13.03;;
2191;SDS011;1102;49.718;11.902;2022-11-18T05:05:23;14.23;;;12.73;;
2191;SDS011;1102;49.718;11.902;2022-11-18T05:07:50;14.27;;;11.30;;
2191;SDS011;1102;49.718;11.902;2022-11-18T05:10:16;14.40;;;11.90;;
2191;SDS011;1102;49.718;11.902;2022-11-18T05:12:43;18.30;;;11.93;;
2191;SDS011;1102;49.718;11.902;2022-11-18T05:15:16;14.70;;;12.07;;
2191;SDS011;1102;49.718;11.902;2022-11-18T05:17:46;17.07;;;12.43;;
2191;SDS011;1102;49.718;11.902;2022-11-18T05:20:13;15.17;;;11.50;;
2191;SDS011;1102;49.718;11.902;2022-11-18T05:22:40;20.30;;;12.87;;
2191;SDS011;1102;49.718;11.902;2022-11-18T05:25:07;18.23;;;12.57;;
2191;SDS011;1102;49.718;11.902;2022-11-18T05:27:34;18.63;;;12.80;;
2191;SDS011;1102;49.718;11.902;2022-11-18T05:30:01;14.30;;;11.97;;
2191;SDS011;1102;49.718;11.902;2022-11-18T05:32:28;18.40;;;13.50;;
2191;SDS011;1102;49.718;11.902;2022-11-18T05:34:54;21.47;;;15.90;;
2191;SDS011;1102;49.718;11.902;2022-11-18T05:37:21;22.47;;;17.17;;
2191;SDS011;1102;49.718;11.902;2022-11-18T05:39:48;24.43;;;15.50;;
2191;SDS011;1102;49.718;11.902;2022-11-18T05:42:14;21.53;;;15.40;;
2191;SDS011;1102;49.718;11.902;2022-11-18T05:45:00;17.43;;;14.10;;
2191;SDS011;1102;49.718;11.902;2022-11-18T05:47:26;19.07;;;14.20;;
2191;SDS011;1102;49.718;11.902;2022-11-18T05:49:53;19.20;;;14.70;;
2191;SDS011;1102;49.718;11.902;2022-11-18T05:52:20;16.33;;;12.03;;
2191;SDS011;1102;49.718;11.902;2022-11-18T05:54:49;15.80;;;13.17;;
2191;SDS011;1102;49.718;11.902;2022-11-18T05:57:16;17.60;;;13.53;;
2191;SDS011;1102;49.718;11.902;2022-11-18T05:59:43;18.23;;;13.30;;
2191;SDS011;1102;49.718;11.902;2022-11-18T06:02:11;15.20;;;12.27;;
2191;SDS011;1102;49.718;11.902;2022-11-18T06:04:43;17.30;;;13.70;;
2191;SDS011;1102;49.718;11.902;2022-11-18T06:07:31;14.30;;;11.63;;
2191;SDS011;1102;49.718;11.902;2022-11-18T06:10:03;19.20;;;12.77;;
2191;SDS011;1102;49.718;11.902;2022-11-18T06:12:36;17.77;;;12.00;;
2191;SDS011;1102;49.718;11.902;2022-11-18T06:17:50;16.80;;;12.30;;
2191;SDS011;1102;49.718;11.902;2022-11-18T06:20:21;14.73;;;12.03;;
2191;SDS011;1102;49.718;11.902;2022-11-18T06:22:50;18.13;;;12.20;;
2191;SDS011;1102;49.718;11.902;2022-11-18T06:25:20;19.40;;;13.10;;
2191;SDS011;1102;49.718;11.902;2022-11-18T06:27:47;18.27;;;12.13;;
2191;SDS011;1102;49.718;11.902;2022-11-18T06:30:17;17.57;;;13.53;;
2191;SDS011;1102;49.718;11.902;2022-11-18T06:32:43;17.10;;;12.77;;
2191;SDS011;1102;49.718;11.902;2022-11-18T06:35:10;15.20;;;12.07;;
2191;SDS011;1102;49.718;11.902;2022-11-18T06:37:37;17.10;;;13.13;;
2191;SDS011;1102;49.718;11.902;2022-11-18T06:40:03;14.53;;;12.10;;
2191;SDS011;1102;49.718;11.902;2022-11-18T06:42:30;17.77;;;12.97;;
2191;SDS011;1102;49.718;11.902;2022-11-18T06:45:16;19.97;;;13.63;;
2191;SDS011;1102;49.718;11.902;2022-11-18T06:47:42;17.00;;;12.50;;
2191;SDS011;1102;49.718;11.902;2022-11-18T06:50:09;16.10;;;12.23;;
2191;SDS011;1102;49.718;11.902;2022-11-18T06:52:36;21.77;;;13.17;;
2191;SDS011;1102;49.718;11.902;2022-11-18T06:55:03;16.33;;;11.90;;
2191;SDS011;1102;49.718;11.902;2022-11-18T06:57:33;17.60;;;12.97;;
2191;SDS011;1102;49.718;11.902;2022-11-18T07:00:00;20.03;;;12.40;;
2191;SDS011;1102;49.718;11.902;2022-11-18T07:02:28;18.20;;;13.63;;
2191;SDS011;1102;49.718;11.902;2022-11-18T07:04:54;16.47;;;12.50;;
2191;SDS011;1102;49.718;11.902;2022-11-18T07:07:21;22.57;;;15.20;;
2191;SDS011;1102;49.718;11.902;2022-11-18T07:09:48;22.33;;;16.03;;
2191;SDS011;1102;49.718;11.902;2022-11-18T07:12:14;18.57;;;14.40;;
2191;SDS011;1102;49.718;11.902;2022-11-18T07:14:41;19.73;;;13.70;;
2191;SDS011;1102;49.718;11.902;2022-11-18T07:17:08;18.07;;;13.30;;
2191;SDS011;1102;49.718;11.902;2022-11-18T07:19:34;17.27;;;13.03;;
2191;SDS011;1102;49.718;11.902;2022-11-18T07:22:01;15.90;;;11.97;;
2191;SDS011;1102;49.718;11.902;2022-11-18T07:24:28;16.83;;;12.70;;
2191;SDS011;1102;49.718;11.902;2022-11-18T07:26:55;15.43;;;11.73;;
2191;SDS011;1102;49.718;11.902;2022-11-18T07:29:22;17.63;;;13.30;;
2191;SDS011;1102;49.718;11.902;2022-11-18T07:31:49;15.87;;;12.10;;
2191;SDS011;1102;49.718;11.902;2022-11-18T07:34:16;23.90;;;14.63;;
2191;SDS011;1102;49.718;11.902;2022-11-18T07:36:42;14.60;;;11.30;;
2191;SDS011;1102;49.718;11.902;2022-11-18T07:39:09;17.37;;;12.40;;
2191;SDS011;1102;49.718;11.902;2022-11-18T07:41:38;15.90;;;11.40;;
2191;SDS011;1102;49.718;11.902;2022-11-18T07:44:05;19.00;;;12.13;;
2191;SDS011;1102;49.718;11.902;2022-11-18T07:46:33;13.37;;;10.57;;
2191;SDS011;1102;49.718;11.902;2022-11-18T07:49:02;17.20;;;12.23;;
2191;SDS011;1102;49.718;11.902;2022-11-18T07:51:31;16.10;;;11.63;;
2191;SDS011;1102;49.718;11.902;2022-11-18T07:54:00;18.60;;;12.97;;
2191;SDS011;1102;49.718;11.902;2022-11-18T07:56:30;17.63;;;12.77;;
2191;SDS011;1102;49.718;11.902;2022-11-18T07:58:57;14.87;;;11.23;;
2191;SDS011;1102;49.718;11.902;2022-11-18T08:01:24;18.63;;;11.87;;
2191;SDS011;1102;49.718;11.902;2022-11-18T08:03:56;14.80;;;11.90;;
2191;SDS011;1102;49.718;11.902;2022-11-18T08:06:24;14.27;;;10.60;;
2191;SDS011;1102;49.718;11.902;2022-11-18T08:08:51;13.53;;;9.53;;
2191;SDS011;1102;49.718;11.902;2022-11-18T08:11:18;12.90;;;10.40;;
2191;SDS011;1102;49.718;11.902;2022-11-18T08:13:48;12.03;;;10.67;;
2191;SDS011;1102;49.718;11.902;2022-11-18T08:16:16;13.17;;;10.43;;
2191;SDS011;1102;49.718;11.902;2022-11-18T08:18:45;14.50;;;10.17;;
2191;SDS011;1102;49.718;11.902;2022-11-18T08:21:13;21.20;;;11.83;;
2191;SDS011;1102;49.718;11.902;2022-11-18T08:23:40;11.73;;;9.00;;
2191;SDS011;1102;49.718;11.902;2022-11-18T08:28:36;12.50;;;9.30;;
2191;SDS011;1102;49.718;11.902;2022-11-18T08:31:16;14.20;;;10.37;;
2191;SDS011;1102;49.718;11.902;2022-11-18T08:33:45;13.40;;;9.80;;
2191;SDS011;1102;49.718;11.902;2022-11-18T08:36:13;12.47;;;9.40;;
2191;SDS011;1102;49.718;11.902;2022-11-18T08:38:41;15.03;;;11.17;;
2191;SDS011;1102;49.718;11.902;2022-11-18T08:41:24;13.90;;;9.67;;
2191;SDS011;1102;49.718;11.902;2022-11-18T08:43:56;16.60;;;11.17;;
2191;SDS011;1102;49.718;11.902;2022-11-18T08:46:23;15.10;;;10.80;;
2191;SDS011;1102;49.718;11.902;2022-11-18T08:48:49;14.67;;;11.33;;
2191;SDS011;1102;49.718;11.902;2022-11-18T08:51:16;13.13;;;10.10;;
2191;SDS011;1102;49.718;11.902;2022-11-18T08:53:43;12.17;;;10.50;;
2191;SDS011;1102;49.718;11.902;2022-11-18T08:56:17;11.77;;;9.40;;
2191;SDS011;1102;49.718;11.902;2022-11-18T08:58:45;15.27;;;9.60;;
2191;SDS011;1102;49.718;11.902;2022-11-18T09:01:12;12.47;;;7.90;;
2191;SDS011;1102;49.718;11.902;2022-11-18T09:03:39;9.70;;;8.20;;
2191;SDS011;1102;49.718;11.902;2022-11-18T09:06:16;11.30;;;8.80;;
2191;SDS011;1102;49.718;11.902;2022-11-18T09:08:46;10.87;;;9.00;;
2191;SDS011;1102;49.718;11.902;2022-11-18T09:11:20;9.73;;;8.47;;
2191;SDS011;1102;49.718;11.902;2022-11-18T09:13:52;11.27;;;8.50;;
2191;SDS011;1102;49.718;11.902;2022-11-18T09:16:41;9.23;;;7.30;;
2191;SDS011;1102;49.718;11.902;2022-11-18T09:19:07;14.50;;;8.60;;
2191;SDS011;1102;49.718;11.902;2022-11-18T09:21:54;14.10;;;8.53;;
2191;SDS011;1102;49.718;11.902;2022-11-18T09:24:21;10.30;;;8.13;;
2191;SDS011;1102;49.718;11.902;2022-11-18T09:26:47;8.77;;;7.00;;
2191;SDS011;1102;49.718;11.902;2022-11-18T09:29:15;10.97;;;8.20;;
2191;SDS011;1102;49.718;11.902;2022-11-18T09:31:41;14.73;;;9.17;;
2191;SDS011;1102;49.718;11.902;2022-11-18T09:34:08;11.27;;;9.37;;
2191;SDS011;1102;49.718;11.902;2022-11-18T09:36:35;10.27;;;9.27;;
2191;SDS011;1102;49.718;11.902;2022-11-18T09:39:03;11.63;;;8.93;;
2191;SDS011;1102;49.718;11.902;2022-11-18T09:41:46;9.87;;;7.60;;
2191;SDS011;1102;49.718;11.902;2022-11-18T09:49:57;9.20;;;7.60;;
2191;SDS011;1102;49.718;11.902;2022-11-18T09:53:07;8.33;;;7.43;;
2191;SDS011;1102;49.718;11.902;2022-11-18T09:55:39;9.17;;;7.00;;
2191;SDS011;1102;49.718;11.902;2022-11-18T09:58:10;8.80;;;7.67;;
2191;SDS011;1102;49.718;11.902;2022-11-18T10:00:43;9.70;;;7.00;;
2191;SDS011;1102;49.718;11.902;2022-11-18T10:03:31;9.60;;;7.33;;
2191;SDS011;1102;49.718;11.902;2022-11-18T10:18:46;7.60;;;6.00;;
2191;SDS011;1102;49.718;11.902;2022-11-18T10:21:37;7.23;;;5.43;;
2191;SDS011;1102;49.718;11.902;2022-11-18T10:24:08;5.30;;;4.50;;
2191;SDS011;1102;49.718;11.902;2022-11-18T10:26:42;6.40;;;5.40;;
2191;SDS011;1102;49.718;11.902;2022-11-18T10:29:08;7.07;;;6.40;;
2191;SDS011;1102;49.718;11.902;2022-11-18T10:31:37;7.27;;;6.57;;
2191;SDS011;1102;49.718;11.902;2022-11-18T10:34:29;6.87;;;6.10;;
2191;SDS011;1102;49.718;11.902;2022-11-18T10:37:09;10.40;;;7.53;;
2191;SDS011;1102;49.718;11.902;2022-11-18T10:40:04;6.90;;;6.17;;
2191;SDS011;1102;49.718;11.902;2022-11-18T10:42:41;5.17;;;4.67;;
2191;SDS011;1102;49.718;11.902;2022-11-18T10:50:33;4.17;;;3.77;;
2191;SDS011;1102;49.718;11.902;2022-11-18T10:53:02;2.23;;;2.03;;
2191;SDS011;1102;49.718;11.902;2022-11-18T10:55:29;2.70;;;1.80;;
2191;SDS011;1102;49.718;11.902;2022-11-18T10:58:14;2.50;;;2.30;;
2191;SDS011;1102;49.718;11.902;2022-11-18T11:00:43;1.90;;;1.73;;
2191;SDS011;1102;49.718;11.902;2022-11-18T11:03:22;2.00;;;1.90;;
2191;SDS011;1102;49.718;11.902;2022-11-18T11:08:52;4.33;;;1.97;;
2191;SDS011;1102;49.718;11.902;2022-11-18T11:14:10;1.90;;;1.80;;
2191;SDS011;1102;49.718;11.902;2022-11-18T11:16:51;1.40;;;1.30;;
2191;SDS011;1102;49.718;11.902;2022-11-18T11:19:26;1.60;;;1.30;;
2191;SDS011;1102;49.718;11.902;2022-11-18T11:21:59;1.13;;;1.03;;
2191;SDS011;1102;49.718;11.902;2022-11-18T11:24:26;2.70;;;1.57;;
2191;SDS011;1102;49.718;11.902;2022-11-18T11:35:02;1.20;;;1.10;;
2191;SDS011;1102;49.718;11.902;2022-11-18T11:38:00;1.73;;;1.60;;
2191;SDS011;1102;49.718;11.902;2022-11-18T11:49:15;2.90;;;1.40;;
2191;SDS011;1102;49.718;11.902;2022-11-18T12:00:07;2.10;;;1.50;;
2191;SDS011;1102;49.718;11.902;2022-11-18T12:08:15;4.70;;;1.77;;
2191;SDS011;1102;49.718;11.902;2022-11-18T12:10:56;4.30;;;2.07;;
2191;SDS011;1102;49.718;11.902;2022-11-18T12:24:25;3.90;;;3.50;;
2191;SDS011;1102;49.718;11.902;2022-11-18T12:34:54;5.73;;;3.97;;
2191;SDS011;1102;49.718;11.902;2022-11-18T12:42:35;2.53;;;1.53;;
2191;SDS011;1102;49.718;11.902;2022-11-18T12:50:53;1.43;;;1.33;;
2191;SDS011;1102;49.718;11.902;2022-11-18T12:56:09;1.20;;;1.10;;
2191;SDS011;1102;49.718;11.902;2022-11-18T12:58:48;1.67;;;1.57;;
2191;SDS011;1102;49.718;11.902;2022-11-18T13:01:20;1.40;;;1.30;;
2191;SDS011;1102;49.718;11.902;2022-11-18T13:03:49;1.73;;;1.30;;
2191;SDS011;1102;49.718;11.902;2022-11-18T13:06:22;1.20;;;1.10;;
2191;SDS011;1102;49.718;11.902;2022-11-18T13:08:52;1.50;;;1.40;;
2191;SDS011;1102;49.718;11.902;2022-11-18T13:11:23;2.77;;;2.50;;
2191;SDS011;1102;49.718;11.902;2022-11-18T13:14:14;2.37;;;2.17;;
2191;SDS011;1102;49.718;11.902;2022-11-18T13:17:21;3.27;;;2.97;;
2191;SDS011;1102;49.718;11.902;2022-11-18T13:22:54;4.00;;;3.23;;
2191;SDS011;1102;49.718;11.902;2022-11-18T13:25:44;2.23;;;1.97;;
2191;SDS011;1102;49.718;11.902;2022-11-18T13:28:27;1.90;;;1.80;;
2191;SDS011;1102;49.718;11.902;2022-11-18T13:34:22;3.10;;;2.90;;
2191;SDS011;1102;49.718;11.902;2022-11-18T13:36:51;2.03;;;1.80;;
2191;SDS011;1102;49.718;11.902;2022-11-18T13:39:21;2.43;;;2.23;;
2191;SDS011;1102;49.718;11.902;2022-11-18T13:42:05;2.80;;;2.60;;
2191;SDS011;1102;49.718;11.902;2022-11-18T13:44:42;2.10;;;2.00;;
2191;SDS011;1102;49.718;11.902;2022-11-18T13:47:40;3.07;;;2.87;;
2191;SDS011;1102;49.718;11.902;2022-11-18T13:53:40;1.87;;;1.77;;
2191;SDS011;1102;49.718;11.902;2022-11-18T13:56:06;1.50;;;1.20;;
2191;SDS011;1102;49.718;11.902;2022-11-18T13:58:51;1.20;;;1.10;;
2191;SDS011;1102;49.718;11.902;2022-11-18T14:01:42;1.50;;;1.40;;
2191;SDS011;1102;49.718;11.902;2022-11-18T14:06:50;1.80;;;1.37;;
2191;SDS011;1102;49.718;11.902;2022-11-18T14:11:58;1.00;;;1.00;;
2191;SDS011;1102;49.718;11.902;2022-11-18T14:14:41;0.90;;;0.90;;
2191;SDS011;1102;49.718;11.902;2022-11-18T14:17:23;4.40;;;3.50;;
2191;SDS011;1102;49.718;11.902;2022-11-18T14:19:55;8.40;;;3.93;;
2191;SDS011;1102;49.718;11.902;2022-11-18T14:22:24;3.00;;;2.57;;
2191;SDS011;1102;49.718;11.902;2022-11-18T14:24:59;1.67;;;1.40;;
2191;SDS011;1102;49.718;11.902;2022-11-18T14:27:36;1.50;;;1.40;;
2191;SDS011;1102;49.718;11.902;2022-11-18T14:35:50;1.37;;;1.00;;
2191;SDS011;1102;49.718;11.902;2022-11-18T14:41:12;6.83;;;1.20;;
2191;SDS011;1102;49.718;11.902;2022-11-18T14:43:40;1.80;;;1.70;;
2191;SDS011;1102;49.718;11.902;2022-11-18T14:46:13;1.43;;;1.30;;
2191;SDS011;1102;49.718;11.902;2022-11-18T14:48:42;1.63;;;1.50;;
2191;SDS011;1102;49.718;11.902;2022-11-18T14:51:13;3.37;;;2.20;;
2191;SDS011;1102;49.718;11.902;2022-11-18T14:53:41;1.87;;;1.77;;
2191;SDS011;1102;49.718;11.902;2022-11-18T14:56:21;1.67;;;1.57;;
2191;SDS011;1102;49.718;11.902;2022-11-18T14:58:52;1.90;;;1.80;;
2191;SDS011;1102;49.718;11.902;2022-11-18T15:01:20;2.60;;;2.07;;
2191;SDS011;1102;49.718;11.902;2022-11-18T15:03:55;2.50;;;2.20;;
2191;SDS011;1102;49.718;11.902;2022-11-18T15:06:22;2.50;;;2.30;;
2191;SDS011;1102;49.718;11.902;2022-11-18T15:08:50;2.00;;;1.67;;
2191;SDS011;1102;49.718;11.902;2022-11-18T15:11:18;2.20;;;2.00;;
2191;SDS011;1102;49.718;11.902;2022-11-18T15:13:45;2.30;;;2.10;;
2191;SDS011;1102;49.718;11.902;2022-11-18T15:18:47;4.93;;;2.20;;
2191;SDS011;1102;49.718;11.902;2022-11-18T15:21:16;3.50;;;3.13;;
2191;SDS011;1102;49.718;11.902;2022-11-18T15:23:42;5.33;;;3.90;;
2191;SDS011;1102;49.718;11.902;2022-11-18T15:26:55;11.63;;;10.93;;
2191;SDS011;1102;49.718;11.902;2022-11-18T15:29:07;4.57;;;4.27;;
2191;SDS011;1102;49.718;11.902;2022-11-18T15:31:41;4.77;;;4.00;;
2191;SDS011;1102;49.718;11.902;2022-11-18T15:34:08;3.73;;;3.43;;
2191;SDS011;1102;49.718;11.902;2022-11-18T15:36:35;3.83;;;3.53;;
2191;SDS011;1102;49.718;11.902;2022-11-18T15:39:01;5.40;;;4.90;;
2191;SDS011;1102;49.718;11.902;2022-11-18T15:41:29;3.43;;;3.20;;
2191;SDS011;1102;49.718;11.902;2022-11-18T15:43:57;4.70;;;4.30;;
2191;SDS011;1102;49.718;11.902;2022-11-18T15:46:25;6.23;;;3.40;;
2191;SDS011;1102;49.718;11.902;2022-11-18T15:48:56;5.00;;;4.60;;
2191;SDS011;1102;49.718;11.902;2022-11-18T15:51:24;5.00;;;4.07;;
2191;SDS011;1102;49.718;11.902;2022-11-18T15:53:52;4.80;;;4.40;;
2191;SDS011;1102;49.718;11.902;2022-11-18T15:58:55;19.77;;;14.20;;
2191;SDS011;1102;49.718;11.902;2022-11-18T16:01:24;6.73;;;5.40;;
2191;SDS011;1102;49.718;11.902;2022-11-18T16:03:53;6.70;;;6.10;;
2191;SDS011;1102;49.718;11.902;2022-11-18T16:06:20;5.00;;;4.60;;
2191;SDS011;1102;49.718;11.902;2022-11-18T16:08:47;7.20;;;4.93;;
2191;SDS011;1102;49.718;11.902;2022-11-18T16:11:17;5.70;;;4.97;;
2191;SDS011;1102;49.718;11.902;2022-11-18T16:14:04;6.20;;;5.60;;
2191;SDS011;1102;49.718;11.902;2022-11-18T16:16:32;5.20;;;4.80;;
2191;SDS011;1102;49.718;11.902;2022-11-18T16:19:01;6.53;;;5.53;;
2191;SDS011;1102;49.718;11.902;2022-11-18T16:21:34;5.90;;;5.30;;
2191;SDS011;1102;49.718;11.902;2022-11-18T16:24:03;8.70;;;6.00;;
2191;SDS011;1102;49.718;11.902;2022-11-18T16:26:31;5.70;;;5.20;;
2191;SDS011;1102;49.718;11.902;2022-11-18T16:28:59;5.67;;;5.20;;
2191;SDS011;1102;49.718;11.902;2022-11-18T16:31:26;6.10;;;5.50;;
2191;SDS011;1102;49.718;11.902;2022-11-18T16:34:06;6.30;;;5.77;;
2191;SDS011;1102;49.718;11.902;2022-11-18T16:36:36;6.00;;;5.50;;
2191;SDS011;1102;49.718;11.902;2022-11-18T16:39:04;6.60;;;5.17;;
2191;SDS011;1102;49.718;11.902;2022-11-18T16:41:38;5.40;;;4.93;;
2191;SDS011;1102;49.718;11.902;2022-11-18T16:44:07;5.77;;;4.73;;
2191;SDS011;1102;49.718;11.902;2022-11-18T16:46:37;6.50;;;5.60;;
2191;SDS011;1102;49.718;11.902;2022-11-18T16:49:06;5.47;;;4.80;;
2191;SDS011;1102;49.718;11.902;2022-11-18T16:51:37;4.90;;;4.50;;
2191;SDS011;1102;49.718;11.902;2022-11-18T16:54:05;3.60;;;3.10;;
2191;SDS011;1102;49.718;11.902;2022-11-18T16:56:34;4.90;;;4.07;;
2191;SDS011;1102;49.718;11.902;2022-11-18T16:59:05;3.67;;;3.37;;
2191;SDS011;1102;49.718;11.902;2022-11-18T17:01:36;3.47;;;3.17;;
2191;SDS011;1102;49.718;11.902;2022-11-18T17:04:02;3.70;;;3.27;;
2191;SDS011;1102;49.718;11.902;2022-11-18T17:06:30;3.80;;;3.50;;
2191;SDS011;1102;49.718;11.902;2022-11-18T17:08:57;4.20;;;3.87;;
2191;SDS011;1102;49.718;11.902;2022-11-18T17:11:24;3.03;;;2.73;;
2191;SDS011;1102;49.718;11.902;2022-11-18T17:13:51;3.00;;;2.80;;
2191;SDS011;1102;49.718;11.902;2022-11-18T17:16:23;4.20;;;3.80;;
2191;SDS011;1102;49.718;11.902;2022-11-18T17:18:55;4.23;;;3.83;;
2191;SDS011;1102;49.718;11.902;2022-11-18T17:21:24;4.13;;;3.73;;
2191;SDS011;1102;49.718;11.902;2022-11-18T17:23:52;4.23;;;3.80;;
2191;SDS011;1102;49.718;11.902;2022-11-18T17:26:23;4.33;;;3.93;;
2191;SDS011;1102;49.718;11.902;2022-11-18T17:28:55;6.57;;;4.90;;
2191;SDS011;1102;49.718;11.902;2022-11-18T17:31:22;5.67;;;5.00;;
2191;SDS011;1102;49.718;11.902;2022-11-18T17:33:50;5.37;;;4.97;;
2191;SDS011;1102;49.718;11.902;2022-11-18T17:36:19;8.77;;;5.33;;
2191;SDS011;1102;49.718;11.902;2022-11-18T17:38:48;4.77;;;4.30;;
2191;SDS011;1102;49.718;11.902;2022-11-18T17:41:17;4.90;;;4.50;;
2191;SDS011;1102;49.718;11.902;2022-11-18T17:44:05;6.37;;;5.77;;
2191;SDS011;1102;49.718;11.902;2022-11-18T17:46:33;5.27;;;4.77;;
2191;SDS011;1102;49.718;11.902;2022-11-18T17:49:05;5.13;;;3.90;;
2191;SDS011;1102;49.718;11.902;2022-11-18T17:51:35;5.03;;;4.60;;